sensor_id;sensor_type;location;lat;lon;timestamp;temperature;humidity
9699;DHT22;10089;47.876;8.346;2022-10-16T00:00:53;12.40;99.90
9699;DHT22;10089;47.876;8.346;2022-10-16T00:03:19;12.50;99.90
9699;DHT22;10089;47.876;8.346;2022-10-16T00:05:44;12.60;99.90
9699;DHT22;10089;47.876;8.346;2022-10-16T00:08:10;12.60;99.90
9699;DHT22;10089;47.876;8.346;2022-10-16T00:10:36;12.60;99.90
9699;DHT22;10089;47.876;8.346;2022-10-16T00:13:02;12.60;99.90
9699;DHT22;10089;47.876;8.346;2022-10-16T00:15:28;12.60;99.90
9699;DHT22;10089;47.876;8.346;2022-10-16T00:17:54;12.60;99.90
9699;DHT22;10089;47.876;8.346;2022-10-16T00:20:19;12.60;99.90
9699;DHT22;10089;47.876;8.346;2022-10-16T00:22:45;12.40;99.90
9699;DHT22;10089;47.876;8.346;2022-10-16T00:25:11;12.40;99.90
9699;DHT22;10089;47.876;8.346;2022-10-16T00:27:36;12.30;99.90
9699;DHT22;10089;47.876;8.346;2022-10-16T00:30:02;12.40;99.90
9699;DHT22;10089;47.876;8.346;2022-10-16T00:32:28;12.50;99.90
9699;DHT22;10089;47.876;8.346;2022-10-16T00:34:54;12.60;99.90
9699;DHT22;10089;47.876;8.346;2022-10-16T00:37:20;12.60;99.90
9699;DHT22;10089;47.876;8.346;2022-10-16T00:39:46;12.70;99.90
9699;DHT22;10089;47.876;8.346;2022-10-16T00:42:16;12.70;99.90
9699;DHT22;10089;47.876;8.346;2022-10-16T00:47:18;12.80;99.90
9699;DHT22;10089;47.876;8.346;2022-10-16T00:49:45;12.80;99.90
9699;DHT22;10089;47.876;8.346;2022-10-16T00:52:11;12.70;99.90
9699;DHT22;10089;47.876;8.346;2022-10-16T00:54:37;12.70;99.90
9699;DHT22;10089;47.876;8.346;2022-10-16T00:57:04;12.70;99.90
9699;DHT22;10089;47.876;8.346;2022-10-16T00:59:32;12.60;99.90
9699;DHT22;10089;47.876;8.346;2022-10-16T01:01:58;12.60;99.90
9699;DHT22;10089;47.876;8.346;2022-10-16T01:04:24;12.50;99.90
9699;DHT22;10089;47.876;8.346;2022-10-16T01:12:10;12.50;99.90
9699;DHT22;10089;47.876;8.346;2022-10-16T01:17:49;12.60;99.90
9699;DHT22;10089;47.876;8.346;2022-10-16T01:25:31;12.60;99.90
9699;DHT22;10089;47.876;8.346;2022-10-16T01:28:01;12.60;99.90
9699;DHT22;10089;47.876;8.346;2022-10-16T01:30:29;12.60;99.90
9699;DHT22;10089;47.876;8.346;2022-10-16T01:33:00;12.50;99.90
9699;DHT22;10089;47.876;8.346;2022-10-16T01:35:45;12.50;99.90
9699;DHT22;10089;47.876;8.346;2022-10-16T01:38:16;12.40;99.90
9699;DHT22;10089;47.876;8.346;2022-10-16T01:40:44;12.40;99.90
9699;DHT22;10089;47.876;8.346;2022-10-16T01:43:13;12.40;99.90
9699;DHT22;10089;47.876;8.346;2022-10-16T01:45:39;12.40;99.90
9699;DHT22;10089;47.876;8.346;2022-10-16T01:48:06;12.40;99.90
9699;DHT22;10089;47.876;8.346;2022-10-16T01:50:34;12.40;99.90
9699;DHT22;10089;47.876;8.346;2022-10-16T01:53:01;12.50;99.90
9699;DHT22;10089;47.876;8.346;2022-10-16T01:55:32;12.50;99.90
9699;DHT22;10089;47.876;8.346;2022-10-16T01:57:59;12.40;99.90
9699;DHT22;10089;47.876;8.346;2022-10-16T02:00:26;12.40;99.90
9699;DHT22;10089;47.876;8.346;2022-10-16T02:02:53;12.40;99.90
9699;DHT22;10089;47.876;8.346;2022-10-16T02:07:51;12.40;99.90
9699;DHT22;10089;47.876;8.346;2022-10-16T02:10:16;12.40;99.90
9699;DHT22;10089;47.876;8.346;2022-10-16T02:12:44;12.50;99.90
9699;DHT22;10089;47.876;8.346;2022-10-16T02:15:11;12.50;99.90
9699;DHT22;10089;47.876;8.346;2022-10-16T02:17:37;12.60;99.90
9699;DHT22;10089;47.876;8.346;2022-10-16T02:20:03;12.60;99.90
9699;DHT22;10089;47.876;8.346;2022-10-16T02:32:44;12.60;99.90
9699;DHT22;10089;47.876;8.346;2022-10-16T02:35:10;12.60;99.90
9699;DHT22;10089;47.876;8.346;2022-10-16T02:37:36;12.60;99.90
9699;DHT22;10089;47.876;8.346;2022-10-16T02:40:02;12.50;99.90
9699;DHT22;10089;47.876;8.346;2022-10-16T02:42:35;12.50;99.90
9699;DHT22;10089;47.876;8.346;2022-10-16T02:45:01;12.50;99.90
9699;DHT22;10089;47.876;8.346;2022-10-16T02:47:26;12.50;99.90
9699;DHT22;10089;47.876;8.346;2022-10-16T02:49:52;12.40;99.90
9699;DHT22;10089;47.876;8.346;2022-10-16T02:52:17;12.40;99.90
9699;DHT22;10089;47.876;8.346;2022-10-16T02:54:43;12.30;99.90
9699;DHT22;10089;47.876;8.346;2022-10-16T02:57:09;12.30;99.90
9699;DHT22;10089;47.876;8.346;2022-10-16T02:59:34;12.30;99.90
9699;DHT22;10089;47.876;8.346;2022-10-16T03:02:00;12.20;99.90
9699;DHT22;10089;47.876;8.346;2022-10-16T03:04:25;12.20;99.90
9699;DHT22;10089;47.876;8.346;2022-10-16T03:06:51;12.20;99.90
9699;DHT22;10089;47.876;8.346;2022-10-16T03:09:16;12.20;99.90
9699;DHT22;10089;47.876;8.346;2022-10-16T03:11:42;12.20;99.90
9699;DHT22;10089;47.876;8.346;2022-10-16T03:14:08;12.20;99.90
9699;DHT22;10089;47.876;8.346;2022-10-16T03:16:33;12.20;99.90
9699;DHT22;10089;47.876;8.346;2022-10-16T03:18:59;12.20;99.90
9699;DHT22;10089;47.876;8.346;2022-10-16T03:21:24;12.20;99.90
9699;DHT22;10089;47.876;8.346;2022-10-16T03:23:50;12.10;99.90
9699;DHT22;10089;47.876;8.346;2022-10-16T03:26:15;12.10;99.90
9699;DHT22;10089;47.876;8.346;2022-10-16T03:28:41;12.10;99.90
9699;DHT22;10089;47.876;8.346;2022-10-16T03:31:06;12.20;99.90
9699;DHT22;10089;47.876;8.346;2022-10-16T03:33:33;12.10;99.90
9699;DHT22;10089;47.876;8.346;2022-10-16T03:35:59;12.10;99.90
9699;DHT22;10089;47.876;8.346;2022-10-16T03:38:24;12.10;99.90
9699;DHT22;10089;47.876;8.346;2022-10-16T03:40:50;12.20;99.90
9699;DHT22;10089;47.876;8.346;2022-10-16T03:43:15;12.10;99.90
9699;DHT22;10089;47.876;8.346;2022-10-16T03:45:41;12.10;99.90
9699;DHT22;10089;47.876;8.346;2022-10-16T03:48:06;12.10;99.90
9699;DHT22;10089;47.876;8.346;2022-10-16T03:50:32;12.10;99.90
9699;DHT22;10089;47.876;8.346;2022-10-16T03:52:58;12.10;99.90
9699;DHT22;10089;47.876;8.346;2022-10-16T03:55:23;12.20;99.90
9699;DHT22;10089;47.876;8.346;2022-10-16T03:57:49;12.20;99.90
9699;DHT22;10089;47.876;8.346;2022-10-16T04:00:14;12.20;99.90
9699;DHT22;10089;47.876;8.346;2022-10-16T04:02:41;12.20;99.90
9699;DHT22;10089;47.876;8.346;2022-10-16T04:05:06;12.20;99.90
9699;DHT22;10089;47.876;8.346;2022-10-16T04:07:32;12.20;99.90
9699;DHT22;10089;47.876;8.346;2022-10-16T04:09:58;12.30;99.90
9699;DHT22;10089;47.876;8.346;2022-10-16T04:12:24;12.30;99.90
9699;DHT22;10089;47.876;8.346;2022-10-16T04:14:50;12.30;99.90
9699;DHT22;10089;47.876;8.346;2022-10-16T04:17:16;12.20;99.90
9699;DHT22;10089;47.876;8.346;2022-10-16T04:19:41;12.20;99.90
9699;DHT22;10089;47.876;8.346;2022-10-16T04:22:07;12.30;99.90
9699;DHT22;10089;47.876;8.346;2022-10-16T04:24:32;12.30;99.90
9699;DHT22;10089;47.876;8.346;2022-10-16T04:26:58;12.30;99.90
9699;DHT22;10089;47.876;8.346;2022-10-16T04:29:24;12.30;99.90
9699;DHT22;10089;47.876;8.346;2022-10-16T04:31:49;12.40;99.90
9699;DHT22;10089;47.876;8.346;2022-10-16T04:34:15;12.40;99.90
9699;DHT22;10089;47.876;8.346;2022-10-16T04:36:40;12.30;99.90
9699;DHT22;10089;47.876;8.346;2022-10-16T04:39:06;12.30;99.90
9699;DHT22;10089;47.876;8.346;2022-10-16T04:41:31;12.30;99.90
9699;DHT22;10089;47.876;8.346;2022-10-16T04:43:57;12.30;99.90
9699;DHT22;10089;47.876;8.346;2022-10-16T04:46:23;12.30;99.90
9699;DHT22;10089;47.876;8.346;2022-10-16T04:48:48;12.30;99.90
9699;DHT22;10089;47.876;8.346;2022-10-16T04:51:14;12.30;99.90
9699;DHT22;10089;47.876;8.346;2022-10-16T04:53:39;12.30;99.90
9699;DHT22;10089;47.876;8.346;2022-10-16T04:56:05;12.30;99.90
9699;DHT22;10089;47.876;8.346;2022-10-16T04:58:31;12.40;99.90
9699;DHT22;10089;47.876;8.346;2022-10-16T05:00:56;12.40;99.90
9699;DHT22;10089;47.876;8.346;2022-10-16T05:03:22;12.30;99.90
9699;DHT22;10089;47.876;8.346;2022-10-16T05:05:47;12.30;99.90
9699;DHT22;10089;47.876;8.346;2022-10-16T05:08:13;12.30;99.90
9699;DHT22;10089;47.876;8.346;2022-10-16T05:10:40;12.20;99.90
9699;DHT22;10089;47.876;8.346;2022-10-16T05:13:06;12.30;99.90
9699;DHT22;10089;47.876;8.346;2022-10-16T05:15:32;12.20;99.90
9699;DHT22;10089;47.876;8.346;2022-10-16T05:17:58;12.20;99.90
9699;DHT22;10089;47.876;8.346;2022-10-16T05:20:23;12.20;99.90
9699;DHT22;10089;47.876;8.346;2022-10-16T05:22:49;12.20;99.90
9699;DHT22;10089;47.876;8.346;2022-10-16T05:25:15;12.20;99.90
9699;DHT22;10089;47.876;8.346;2022-10-16T05:27:41;12.10;99.90
9699;DHT22;10089;47.876;8.346;2022-10-16T05:30:06;12.10;99.90
9699;DHT22;10089;47.876;8.346;2022-10-16T05:32:33;12.10;99.90
9699;DHT22;10089;47.876;8.346;2022-10-16T05:34:58;12.00;99.90
9699;DHT22;10089;47.876;8.346;2022-10-16T05:37:25;12.10;99.90
9699;DHT22;10089;47.876;8.346;2022-10-16T05:39:51;12.10;99.90
9699;DHT22;10089;47.876;8.346;2022-10-16T05:42:16;12.00;99.90
9699;DHT22;10089;47.876;8.346;2022-10-16T05:44:42;12.00;99.90
9699;DHT22;10089;47.876;8.346;2022-10-16T05:47:07;12.00;99.90
9699;DHT22;10089;47.876;8.346;2022-10-16T05:49:33;12.00;99.90
9699;DHT22;10089;47.876;8.346;2022-10-16T05:51:59;12.00;99.90
9699;DHT22;10089;47.876;8.346;2022-10-16T05:54:24;12.00;99.90
9699;DHT22;10089;47.876;8.346;2022-10-16T05:56:50;12.00;99.90
9699;DHT22;10089;47.876;8.346;2022-10-16T05:59:15;12.00;99.90
9699;DHT22;10089;47.876;8.346;2022-10-16T06:01:41;12.00;99.90
9699;DHT22;10089;47.876;8.346;2022-10-16T06:04:07;12.10;99.90
9699;DHT22;10089;47.876;8.346;2022-10-16T06:06:33;12.10;99.90
9699;DHT22;10089;47.876;8.346;2022-10-16T06:08:58;12.10;99.90
9699;DHT22;10089;47.876;8.346;2022-10-16T06:11:29;12.10;99.90
9699;DHT22;10089;47.876;8.346;2022-10-16T06:13:56;12.20;99.90
9699;DHT22;10089;47.876;8.346;2022-10-16T06:16:22;12.20;99.90
9699;DHT22;10089;47.876;8.346;2022-10-16T06:18:49;12.20;99.90
9699;DHT22;10089;47.876;8.346;2022-10-16T06:21:21;12.20;99.90
9699;DHT22;10089;47.876;8.346;2022-10-16T06:23:47;12.20;99.90
9699;DHT22;10089;47.876;8.346;2022-10-16T06:26:14;12.20;99.90
9699;DHT22;10089;47.876;8.346;2022-10-16T06:28:40;12.30;99.90
9699;DHT22;10089;47.876;8.346;2022-10-16T06:31:06;12.20;99.90
9699;DHT22;10089;47.876;8.346;2022-10-16T06:33:32;12.20;99.90
9699;DHT22;10089;47.876;8.346;2022-10-16T06:36:05;12.30;99.90
9699;DHT22;10089;47.876;8.346;2022-10-16T06:38:31;12.40;99.90
9699;DHT22;10089;47.876;8.346;2022-10-16T06:40:57;12.40;99.90
9699;DHT22;10089;47.876;8.346;2022-10-16T06:43:22;12.40;99.90
9699;DHT22;10089;47.876;8.346;2022-10-16T06:45:55;12.40;99.90
9699;DHT22;10089;47.876;8.346;2022-10-16T06:48:21;12.50;99.90
9699;DHT22;10089;47.876;8.346;2022-10-16T06:53:21;12.50;99.90
9699;DHT22;10089;47.876;8.346;2022-10-16T06:55:47;12.50;99.90
9699;DHT22;10089;47.876;8.346;2022-10-16T06:58:13;12.60;99.90
9699;DHT22;10089;47.876;8.346;2022-10-16T07:00:38;12.60;99.90
9699;DHT22;10089;47.876;8.346;2022-10-16T07:03:04;12.50;99.90
9699;DHT22;10089;47.876;8.346;2022-10-16T07:05:29;12.60;99.90
9699;DHT22;10089;47.876;8.346;2022-10-16T07:07:55;12.60;99.90
9699;DHT22;10089;47.876;8.346;2022-10-16T07:10:21;12.60;99.90
9699;DHT22;10089;47.876;8.346;2022-10-16T07:12:49;12.70;99.90
9699;DHT22;10089;47.876;8.346;2022-10-16T07:15:15;12.70;99.90
9699;DHT22;10089;47.876;8.346;2022-10-16T07:17:40;12.70;99.90
9699;DHT22;10089;47.876;8.346;2022-10-16T07:20:06;12.70;99.90
9699;DHT22;10089;47.876;8.346;2022-10-16T07:22:32;12.80;99.90
9699;DHT22;10089;47.876;8.346;2022-10-16T07:24:58;12.80;99.90
9699;DHT22;10089;47.876;8.346;2022-10-16T07:27:23;12.80;99.90
9699;DHT22;10089;47.876;8.346;2022-10-16T07:29:49;12.80;99.90
9699;DHT22;10089;47.876;8.346;2022-10-16T07:32:15;12.90;99.90
9699;DHT22;10089;47.876;8.346;2022-10-16T07:34:40;12.90;99.90
9699;DHT22;10089;47.876;8.346;2022-10-16T07:37:07;12.90;99.90
9699;DHT22;10089;47.876;8.346;2022-10-16T07:39:32;12.90;99.90
9699;DHT22;10089;47.876;8.346;2022-10-16T07:41:58;12.90;99.90
9699;DHT22;10089;47.876;8.346;2022-10-16T07:44:24;12.90;99.90
9699;DHT22;10089;47.876;8.346;2022-10-16T07:46:50;13.00;99.90
9699;DHT22;10089;47.876;8.346;2022-10-16T07:49:15;13.10;99.90
9699;DHT22;10089;47.876;8.346;2022-10-16T07:51:41;13.20;99.90
9699;DHT22;10089;47.876;8.346;2022-10-16T07:54:07;13.20;99.90
9699;DHT22;10089;47.876;8.346;2022-10-16T07:56:33;13.20;99.90
9699;DHT22;10089;47.876;8.346;2022-10-16T07:58:59;13.20;99.90
9699;DHT22;10089;47.876;8.346;2022-10-16T08:01:24;13.20;99.90
9699;DHT22;10089;47.876;8.346;2022-10-16T08:03:51;13.30;99.90
9699;DHT22;10089;47.876;8.346;2022-10-16T08:06:17;13.40;99.90
9699;DHT22;10089;47.876;8.346;2022-10-16T08:08:43;13.50;99.90
9699;DHT22;10089;47.876;8.346;2022-10-16T08:11:08;13.60;99.90
9699;DHT22;10089;47.876;8.346;2022-10-16T08:13:34;13.70;99.90
9699;DHT22;10089;47.876;8.346;2022-10-16T08:16:00;13.80;99.90
9699;DHT22;10089;47.876;8.346;2022-10-16T08:18:27;14.00;99.90
9699;DHT22;10089;47.876;8.346;2022-10-16T08:20:56;14.10;99.90
9699;DHT22;10089;47.876;8.346;2022-10-16T08:23:22;14.10;99.90
9699;DHT22;10089;47.876;8.346;2022-10-16T08:25:48;14.10;99.90
9699;DHT22;10089;47.876;8.346;2022-10-16T08:28:14;14.00;99.90
9699;DHT22;10089;47.876;8.346;2022-10-16T08:30:40;14.00;99.90
9699;DHT22;10089;47.876;8.346;2022-10-16T08:33:06;14.00;99.90
9699;DHT22;10089;47.876;8.346;2022-10-16T08:35:32;14.00;99.90
9699;DHT22;10089;47.876;8.346;2022-10-16T08:37:57;14.00;99.90
9699;DHT22;10089;47.876;8.346;2022-10-16T08:40:30;14.10;99.90
9699;DHT22;10089;47.876;8.346;2022-10-16T08:50:51;14.40;99.90
9699;DHT22;10089;47.876;8.346;2022-10-16T08:53:19;14.40;99.90
9699;DHT22;10089;47.876;8.346;2022-10-16T08:55:46;14.50;99.90
9699;DHT22;10089;47.876;8.346;2022-10-16T08:58:16;14.70;99.90
9699;DHT22;10089;47.876;8.346;2022-10-16T09:00:42;15.00;99.90
9699;DHT22;10089;47.876;8.346;2022-10-16T09:08:40;16.80;92.60
9699;DHT22;10089;47.876;8.346;2022-10-16T09:16:11;16.60;99.90
9699;DHT22;10089;47.876;8.346;2022-10-16T09:21:29;16.40;99.90
9699;DHT22;10089;47.876;8.346;2022-10-16T09:26:40;16.70;99.90
9699;DHT22;10089;47.876;8.346;2022-10-16T09:29:05;17.00;1.00
9699;DHT22;10089;47.876;8.346;2022-10-16T09:31:31;17.00;25.90
9699;DHT22;10089;47.876;8.346;2022-10-16T09:34:00;16.70;1.00
9699;DHT22;10089;47.876;8.346;2022-10-16T09:36:33;16.70;86.70
9699;DHT22;10089;47.876;8.346;2022-10-16T09:39:04;16.50;99.90
9699;DHT22;10089;47.876;8.346;2022-10-16T09:41:30;16.90;1.00
9699;DHT22;10089;47.876;8.346;2022-10-16T09:43:56;17.00;1.00
9699;DHT22;10089;47.876;8.346;2022-10-16T09:48:48;18.10;99.90
9699;DHT22;10089;47.876;8.346;2022-10-16T09:51:21;18.70;1.00
9699;DHT22;10089;47.876;8.346;2022-10-16T09:53:47;19.00;99.90
9699;DHT22;10089;47.876;8.346;2022-10-16T09:56:20;18.70;99.90
9699;DHT22;10089;47.876;8.346;2022-10-16T09:58:50;19.00;1.00
9699;DHT22;10089;47.876;8.346;2022-10-16T10:01:16;19.10;1.00
9699;DHT22;10089;47.876;8.346;2022-10-16T10:03:42;19.00;99.90
9699;DHT22;10089;47.876;8.346;2022-10-16T10:06:22;18.80;99.90
9699;DHT22;10089;47.876;8.346;2022-10-16T10:09:31;18.90;1.00
9699;DHT22;10089;47.876;8.346;2022-10-16T10:11:42;19.10;1.00
9699;DHT22;10089;47.876;8.346;2022-10-16T10:14:18;19.90;1.00
9699;DHT22;10089;47.876;8.346;2022-10-16T10:16:44;19.90;1.00
9699;DHT22;10089;47.876;8.346;2022-10-16T10:19:21;19.50;1.00
9699;DHT22;10089;47.876;8.346;2022-10-16T10:21:47;20.10;99.90
9699;DHT22;10089;47.876;8.346;2022-10-16T10:24:13;20.10;1.00
9699;DHT22;10089;47.876;8.346;2022-10-16T10:26:41;19.90;99.90
9699;DHT22;10089;47.876;8.346;2022-10-16T10:34:25;19.20;1.00
9699;DHT22;10089;47.876;8.346;2022-10-16T10:39:47;19.20;99.90
9699;DHT22;10089;47.876;8.346;2022-10-16T10:44:51;19.20;1.00
9699;DHT22;10089;47.876;8.346;2022-10-16T10:50:14;19.10;1.00
9699;DHT22;10089;47.876;8.346;2022-10-16T10:52:52;18.80;99.90
9699;DHT22;10089;47.876;8.346;2022-10-16T10:55:24;18.90;1.00
9699;DHT22;10089;47.876;8.346;2022-10-16T11:03:13;19.60;99.90
9699;DHT22;10089;47.876;8.346;2022-10-16T11:08:15;20.00;99.90
9699;DHT22;10089;47.876;8.346;2022-10-16T11:10:44;20.10;99.90
9699;DHT22;10089;47.876;8.346;2022-10-16T11:13:21;19.80;1.00
9699;DHT22;10089;47.876;8.346;2022-10-16T11:15:48;19.80;53.30
9699;DHT22;10089;47.876;8.346;2022-10-16T11:18:24;19.80;99.90
9699;DHT22;10089;47.876;8.346;2022-10-16T11:20:54;20.00;99.90
9699;DHT22;10089;47.876;8.346;2022-10-16T11:23:37;19.80;99.90
9699;DHT22;10089;47.876;8.346;2022-10-16T11:26:06;20.10;99.90
9699;DHT22;10089;47.876;8.346;2022-10-16T11:28:37;20.00;1.00
9699;DHT22;10089;47.876;8.346;2022-10-16T11:31:08;20.30;1.00
9699;DHT22;10089;47.876;8.346;2022-10-16T11:36:22;20.40;99.90
9699;DHT22;10089;47.876;8.346;2022-10-16T11:46:58;20.40;99.90
9699;DHT22;10089;47.876;8.346;2022-10-16T11:49:26;20.80;99.90
9699;DHT22;10089;47.876;8.346;2022-10-16T11:51:59;21.30;1.00
9699;DHT22;10089;47.876;8.346;2022-10-16T11:54:39;21.00;1.00
9699;DHT22;10089;47.876;8.346;2022-10-16T12:05:06;20.40;1.00
9699;DHT22;10089;47.876;8.346;2022-10-16T12:07:37;20.40;1.00
9699;DHT22;10089;47.876;8.346;2022-10-16T12:10:10;20.60;1.00
9699;DHT22;10089;47.876;8.346;2022-10-16T12:12:37;20.60;1.00
9699;DHT22;10089;47.876;8.346;2022-10-16T12:15:18;20.60;1.00
9699;DHT22;10089;47.876;8.346;2022-10-16T12:17:44;20.70;1.00
9699;DHT22;10089;47.876;8.346;2022-10-16T12:25:37;20.20;1.00
9699;DHT22;10089;47.876;8.346;2022-10-16T12:30:40;20.00;1.00
9699;DHT22;10089;47.876;8.346;2022-10-16T12:33:06;20.20;1.00
9699;DHT22;10089;47.876;8.346;2022-10-16T12:35:43;20.00;1.00
9699;DHT22;10089;47.876;8.346;2022-10-16T12:40:39;20.10;1.00
9699;DHT22;10089;47.876;8.346;2022-10-16T12:43:13;20.00;99.90
9699;DHT22;10089;47.876;8.346;2022-10-16T12:45:58;20.10;1.00
9699;DHT22;10089;47.876;8.346;2022-10-16T12:48:24;20.00;99.90
9699;DHT22;10089;47.876;8.346;2022-10-16T12:50:49;19.90;99.90
9699;DHT22;10089;47.876;8.346;2022-10-16T12:53:22;20.00;1.00
9699;DHT22;10089;47.876;8.346;2022-10-16T12:55:55;19.80;1.00
9699;DHT22;10089;47.876;8.346;2022-10-16T13:00:57;20.20;1.00
9699;DHT22;10089;47.876;8.346;2022-10-16T13:13:30;20.00;1.00
9699;DHT22;10089;47.876;8.346;2022-10-16T13:18:29;19.90;1.00
9699;DHT22;10089;47.876;8.346;2022-10-16T13:21:07;20.10;1.00
9699;DHT22;10089;47.876;8.346;2022-10-16T13:23:45;20.30;1.00
9699;DHT22;10089;47.876;8.346;2022-10-16T13:28:39;20.10;1.00
9699;DHT22;10089;47.876;8.346;2022-10-16T13:31:05;20.00;1.00
9699;DHT22;10089;47.876;8.346;2022-10-16T13:33:36;19.70;1.00
9699;DHT22;10089;47.876;8.346;2022-10-16T13:36:03;19.70;1.00
9699;DHT22;10089;47.876;8.346;2022-10-16T13:38:33;19.60;1.00
9699;DHT22;10089;47.876;8.346;2022-10-16T13:43:32;19.40;1.00
9699;DHT22;10089;47.876;8.346;2022-10-16T13:45:59;19.40;1.00
9699;DHT22;10089;47.876;8.346;2022-10-16T13:48:25;19.40;1.00
9699;DHT22;10089;47.876;8.346;2022-10-16T13:53:25;19.30;99.90
9699;DHT22;10089;47.876;8.346;2022-10-16T13:55:50;19.20;99.90
9699;DHT22;10089;47.876;8.346;2022-10-16T13:58:16;19.30;99.90
9699;DHT22;10089;47.876;8.346;2022-10-16T14:01:01;19.30;99.90
9699;DHT22;10089;47.876;8.346;2022-10-16T14:03:27;19.20;99.90
9699;DHT22;10089;47.876;8.346;2022-10-16T14:05:57;19.20;1.00
9699;DHT22;10089;47.876;8.346;2022-10-16T14:08:24;19.30;1.00
9699;DHT22;10089;47.876;8.346;2022-10-16T14:10:51;19.40;1.00
9699;DHT22;10089;47.876;8.346;2022-10-16T14:13:19;19.40;1.00
9699;DHT22;10089;47.876;8.346;2022-10-16T14:15:49;19.40;5.40
9699;DHT22;10089;47.876;8.346;2022-10-16T14:18:21;19.40;19.40
9699;DHT22;10089;47.876;8.346;2022-10-16T14:20:47;19.30;99.90
9699;DHT22;10089;47.876;8.346;2022-10-16T14:23:23;19.30;1.00
9699;DHT22;10089;47.876;8.346;2022-10-16T14:25:53;19.20;1.00
9699;DHT22;10089;47.876;8.346;2022-10-16T14:28:22;19.20;1.00
9699;DHT22;10089;47.876;8.346;2022-10-16T14:30:55;19.20;1.00
9699;DHT22;10089;47.876;8.346;2022-10-16T14:38:34;19.20;1.00
9699;DHT22;10089;47.876;8.346;2022-10-16T14:40:59;19.20;1.00
9699;DHT22;10089;47.876;8.346;2022-10-16T14:45:55;19.00;99.90
9699;DHT22;10089;47.876;8.346;2022-10-16T14:48:21;19.00;1.00
9699;DHT22;10089;47.876;8.346;2022-10-16T14:50:47;19.10;1.00
9699;DHT22;10089;47.876;8.346;2022-10-16T14:53:16;19.10;1.00
9699;DHT22;10089;47.876;8.346;2022-10-16T14:55:50;19.00;1.00
9699;DHT22;10089;47.876;8.346;2022-10-16T14:58:41;19.00;99.90
9699;DHT22;10089;47.876;8.346;2022-10-16T15:01:09;18.90;99.90
9699;DHT22;10089;47.876;8.346;2022-10-16T15:03:54;18.90;99.90
9699;DHT22;10089;47.876;8.346;2022-10-16T15:06:20;18.90;99.90
9699;DHT22;10089;47.876;8.346;2022-10-16T15:08:46;18.90;1.00
9699;DHT22;10089;47.876;8.346;2022-10-16T15:11:18;18.90;1.00
9699;DHT22;10089;47.876;8.346;2022-10-16T15:13:44;18.40;1.00
9699;DHT22;10089;47.876;8.346;2022-10-16T15:16:14;18.80;1.00
9699;DHT22;10089;47.876;8.346;2022-10-16T15:18:40;18.70;91.00
9699;DHT22;10089;47.876;8.346;2022-10-16T15:21:06;18.70;90.70
9699;DHT22;10089;47.876;8.346;2022-10-16T15:23:37;18.80;99.90
9699;DHT22;10089;47.876;8.346;2022-10-16T15:26:04;18.60;1.00
9699;DHT22;10089;47.876;8.346;2022-10-16T15:28:29;18.60;1.00
9699;DHT22;10089;47.876;8.346;2022-10-16T15:30:55;18.50;1.00
9699;DHT22;10089;47.876;8.346;2022-10-16T15:33:22;18.50;99.90
9699;DHT22;10089;47.876;8.346;2022-10-16T15:35:49;18.40;1.00
9699;DHT22;10089;47.876;8.346;2022-10-16T15:38:15;18.30;99.90
9699;DHT22;10089;47.876;8.346;2022-10-16T15:41:02;18.20;99.90
9699;DHT22;10089;47.876;8.346;2022-10-16T15:43:27;18.20;1.00
9699;DHT22;10089;47.876;8.346;2022-10-16T15:46:13;18.10;99.90
9699;DHT22;10089;47.876;8.346;2022-10-16T15:48:39;18.00;1.00
9699;DHT22;10089;47.876;8.346;2022-10-16T15:51:07;17.90;82.00
9699;DHT22;10089;47.876;8.346;2022-10-16T15:53:34;17.90;1.00
9699;DHT22;10089;47.876;8.346;2022-10-16T15:56:04;17.90;1.00
9699;DHT22;10089;47.876;8.346;2022-10-16T15:58:30;17.80;99.90
9699;DHT22;10089;47.876;8.346;2022-10-16T16:00:58;17.80;1.00
9699;DHT22;10089;47.876;8.346;2022-10-16T16:03:26;17.70;1.00
9699;DHT22;10089;47.876;8.346;2022-10-16T16:05:52;17.70;1.00
9699;DHT22;10089;47.876;8.346;2022-10-16T16:08:18;17.60;99.90
9699;DHT22;10089;47.876;8.346;2022-10-16T16:10:56;17.60;1.00
9699;DHT22;10089;47.876;8.346;2022-10-16T16:13:23;18.20;91.10
9699;DHT22;10089;47.876;8.346;2022-10-16T16:15:49;17.50;1.00
9699;DHT22;10089;47.876;8.346;2022-10-16T16:18:14;17.40;99.90
9699;DHT22;10089;47.876;8.346;2022-10-16T16:20:40;17.30;1.00
9699;DHT22;10089;47.876;8.346;2022-10-16T16:23:05;17.20;1.00
9699;DHT22;10089;47.876;8.346;2022-10-16T16:25:31;17.20;1.00
9699;DHT22;10089;47.876;8.346;2022-10-16T16:27:57;17.10;67.20
9699;DHT22;10089;47.876;8.346;2022-10-16T16:30:23;17.00;99.90
9699;DHT22;10089;47.876;8.346;2022-10-16T16:32:48;16.90;79.10
9699;DHT22;10089;47.876;8.346;2022-10-16T16:35:14;16.80;99.90
9699;DHT22;10089;47.876;8.346;2022-10-16T16:37:39;16.80;99.90
9699;DHT22;10089;47.876;8.346;2022-10-16T16:40:05;16.70;99.90
9699;DHT22;10089;47.876;8.346;2022-10-16T16:42:31;16.50;1.00
9699;DHT22;10089;47.876;8.346;2022-10-16T16:44:58;16.50;99.90
9699;DHT22;10089;47.876;8.346;2022-10-16T16:47:24;16.40;99.90
9699;DHT22;10089;47.876;8.346;2022-10-16T16:49:51;16.10;1.00
9699;DHT22;10089;47.876;8.346;2022-10-16T16:52:16;16.10;99.90
9699;DHT22;10089;47.876;8.346;2022-10-16T16:54:42;16.00;1.00
9699;DHT22;10089;47.876;8.346;2022-10-16T16:57:09;16.00;99.90
9699;DHT22;10089;47.876;8.346;2022-10-16T16:59:35;15.90;1.00
9699;DHT22;10089;47.876;8.346;2022-10-16T17:02:01;15.80;99.90
9699;DHT22;10089;47.876;8.346;2022-10-16T17:04:27;15.70;99.90
9699;DHT22;10089;47.876;8.346;2022-10-16T17:06:53;15.70;1.00
9699;DHT22;10089;47.876;8.346;2022-10-16T17:09:19;15.60;1.00
9699;DHT22;10089;47.876;8.346;2022-10-16T17:11:45;15.50;1.00
9699;DHT22;10089;47.876;8.346;2022-10-16T17:14:12;15.30;1.00
9699;DHT22;10089;47.876;8.346;2022-10-16T17:16:38;15.30;1.00
9699;DHT22;10089;47.876;8.346;2022-10-16T17:19:05;15.20;1.00
9699;DHT22;10089;47.876;8.346;2022-10-16T17:21:31;15.10;1.00
9699;DHT22;10089;47.876;8.346;2022-10-16T17:23:58;15.10;1.00
9699;DHT22;10089;47.876;8.346;2022-10-16T17:26:27;15.10;1.00
9699;DHT22;10089;47.876;8.346;2022-10-16T17:28:54;15.00;1.00
9699;DHT22;10089;47.876;8.346;2022-10-16T17:31:24;14.90;1.00
9699;DHT22;10089;47.876;8.346;2022-10-16T17:33:50;14.90;1.00
9699;DHT22;10089;47.876;8.346;2022-10-16T17:36:21;14.80;1.00
9699;DHT22;10089;47.876;8.346;2022-10-16T17:38:46;14.50;55.90
9699;DHT22;10089;47.876;8.346;2022-10-16T17:41:13;14.50;99.90
9699;DHT22;10089;47.876;8.346;2022-10-16T17:43:39;14.50;99.90
9699;DHT22;10089;47.876;8.346;2022-10-16T17:46:08;14.40;99.90
9699;DHT22;10089;47.876;8.346;2022-10-16T17:48:37;14.40;99.90
9699;DHT22;10089;47.876;8.346;2022-10-16T17:51:04;14.40;99.90
9699;DHT22;10089;47.876;8.346;2022-10-16T17:53:32;14.30;99.90
9699;DHT22;10089;47.876;8.346;2022-10-16T17:56:01;14.30;99.90
9699;DHT22;10089;47.876;8.346;2022-10-16T17:58:28;14.40;99.90
9699;DHT22;10089;47.876;8.346;2022-10-16T18:00:54;14.30;99.90
9699;DHT22;10089;47.876;8.346;2022-10-16T18:03:19;14.30;99.90
9699;DHT22;10089;47.876;8.346;2022-10-16T18:05:45;14.20;99.90
9699;DHT22;10089;47.876;8.346;2022-10-16T18:08:12;14.10;99.90
9699;DHT22;10089;47.876;8.346;2022-10-16T18:10:44;14.10;99.90